sensor_id;sensor_type;location;lat;lon;timestamp;P1;durP1;ratioP1;P2;durP2;ratioP2
59042;SDS011;44826;51.596;5.624;2022-12-11T00:00:33;40.27;;;11.83;;
59042;SDS011;44826;51.596;5.624;2022-12-11T00:02:58;43.50;;;12.33;;
59042;SDS011;44826;51.596;5.624;2022-12-11T00:05:23;38.40;;;11.50;;
59042;SDS011;44826;51.596;5.624;2022-12-11T00:07:49;39.87;;;11.37;;
59042;SDS011;44826;51.596;5.624;2022-12-11T00:10:14;41.63;;;11.33;;
59042;SDS011;44826;51.596;5.624;2022-12-11T00:12:39;36.27;;;10.97;;
59042;SDS011;44826;51.596;5.624;2022-12-11T00:15:05;37.70;;;11.50;;
59042;SDS011;44826;51.596;5.624;2022-12-11T00:17:30;37.97;;;11.00;;
59042;SDS011;44826;51.596;5.624;2022-12-11T00:19:55;38.80;;;10.87;;
59042;SDS011;44826;51.596;5.624;2022-12-11T00:22:21;40.50;;;10.90;;
59042;SDS011;44826;51.596;5.624;2022-12-11T00:24:46;37.77;;;10.83;;
59042;SDS011;44826;51.596;5.624;2022-12-11T00:27:11;38.43;;;12.83;;
59042;SDS011;44826;51.596;5.624;2022-12-11T00:29:37;39.10;;;11.03;;
59042;SDS011;44826;51.596;5.624;2022-12-11T00:32:02;38.37;;;10.90;;
59042;SDS011;44826;51.596;5.624;2022-12-11T00:34:27;40.80;;;11.70;;
59042;SDS011;44826;51.596;5.624;2022-12-11T00:36:52;39.53;;;11.30;;
59042;SDS011;44826;51.596;5.624;2022-12-11T00:39:18;36.17;;;10.87;;
59042;SDS011;44826;51.596;5.624;2022-12-11T00:41:43;38.93;;;11.43;;
59042;SDS011;44826;51.596;5.624;2022-12-11T00:44:08;40.00;;;11.50;;
59042;SDS011;44826;51.596;5.624;2022-12-11T00:46:33;38.70;;;11.27;;
59042;SDS011;44826;51.596;5.624;2022-12-11T00:48:59;41.33;;;11.50;;
59042;SDS011;44826;51.596;5.624;2022-12-11T00:51:24;38.83;;;11.37;;
59042;SDS011;44826;51.596;5.624;2022-12-11T00:53:50;37.13;;;10.80;;
59042;SDS011;44826;51.596;5.624;2022-12-11T00:56:17;39.07;;;11.13;;
59042;SDS011;44826;51.596;5.624;2022-12-11T00:58:44;37.17;;;10.70;;
59042;SDS011;44826;51.596;5.624;2022-12-11T01:01:12;41.83;;;11.70;;
59042;SDS011;44826;51.596;5.624;2022-12-11T01:03:39;37.57;;;11.33;;
59042;SDS011;44826;51.596;5.624;2022-12-11T01:06:05;36.63;;;10.50;;
59042;SDS011;44826;51.596;5.624;2022-12-11T01:08:31;41.57;;;11.70;;
59042;SDS011;44826;51.596;5.624;2022-12-11T01:11:04;36.53;;;10.73;;
59042;SDS011;44826;51.596;5.624;2022-12-11T01:13:31;35.90;;;11.13;;
59042;SDS011;44826;51.596;5.624;2022-12-11T01:15:57;35.73;;;10.83;;
59042;SDS011;44826;51.596;5.624;2022-12-11T01:18:22;34.50;;;10.77;;
59042;SDS011;44826;51.596;5.624;2022-12-11T01:20:48;37.07;;;11.23;;
59042;SDS011;44826;51.596;5.624;2022-12-11T01:23:13;38.10;;;11.40;;
59042;SDS011;44826;51.596;5.624;2022-12-11T01:25:39;35.97;;;11.33;;
59042;SDS011;44826;51.596;5.624;2022-12-11T01:28:06;35.10;;;11.13;;
59042;SDS011;44826;51.596;5.624;2022-12-11T01:30:32;38.27;;;11.47;;
59042;SDS011;44826;51.596;5.624;2022-12-11T01:32:58;43.93;;;12.20;;
59042;SDS011;44826;51.596;5.624;2022-12-11T01:35:24;35.73;;;11.03;;
59042;SDS011;44826;51.596;5.624;2022-12-11T01:37:50;36.93;;;11.97;;
59042;SDS011;44826;51.596;5.624;2022-12-11T01:40:16;36.40;;;11.97;;
59042;SDS011;44826;51.596;5.624;2022-12-11T01:42:43;39.50;;;11.77;;
59042;SDS011;44826;51.596;5.624;2022-12-11T01:47:46;34.77;;;11.63;;
59042;SDS011;44826;51.596;5.624;2022-12-11T01:50:12;37.93;;;11.40;;
59042;SDS011;44826;51.596;5.624;2022-12-11T01:52:38;34.10;;;10.83;;
59042;SDS011;44826;51.596;5.624;2022-12-11T01:55:05;39.23;;;12.30;;
59042;SDS011;44826;51.596;5.624;2022-12-11T01:57:32;33.00;;;10.77;;
59042;SDS011;44826;51.596;5.624;2022-12-11T01:59:58;42.40;;;13.30;;
59042;SDS011;44826;51.596;5.624;2022-12-11T02:02:25;38.30;;;12.30;;
59042;SDS011;44826;51.596;5.624;2022-12-11T02:04:53;37.80;;;11.73;;
59042;SDS011;44826;51.596;5.624;2022-12-11T02:07:18;35.90;;;11.43;;
59042;SDS011;44826;51.596;5.624;2022-12-11T02:09:44;36.80;;;11.23;;
59042;SDS011;44826;51.596;5.624;2022-12-11T02:12:17;38.30;;;12.27;;
59042;SDS011;44826;51.596;5.624;2022-12-11T02:15:16;35.23;;;12.10;;
59042;SDS011;44826;51.596;5.624;2022-12-11T02:20:31;36.33;;;11.63;;
59042;SDS011;44826;51.596;5.624;2022-12-11T02:23:05;33.43;;;10.57;;
59042;SDS011;44826;51.596;5.624;2022-12-11T02:25:56;35.20;;;11.70;;
59042;SDS011;44826;51.596;5.624;2022-12-11T02:28:45;38.10;;;12.00;;
59042;SDS011;44826;51.596;5.624;2022-12-11T02:31:17;31.87;;;11.70;;
59042;SDS011;44826;51.596;5.624;2022-12-11T02:33:51;31.13;;;11.03;;
59042;SDS011;44826;51.596;5.624;2022-12-11T02:36:38;34.30;;;11.80;;
59042;SDS011;44826;51.596;5.624;2022-12-11T02:39:09;32.73;;;11.60;;
59042;SDS011;44826;51.596;5.624;2022-12-11T02:41:38;37.33;;;12.33;;
59042;SDS011;44826;51.596;5.624;2022-12-11T02:44:07;31.97;;;12.07;;
59042;SDS011;44826;51.596;5.624;2022-12-11T02:46:36;36.50;;;12.17;;
59042;SDS011;44826;51.596;5.624;2022-12-11T02:49:02;32.77;;;11.07;;
59042;SDS011;44826;51.596;5.624;2022-12-11T02:51:31;29.83;;;9.97;;
59042;SDS011;44826;51.596;5.624;2022-12-11T02:54:00;28.50;;;10.97;;
59042;SDS011;44826;51.596;5.624;2022-12-11T02:56:33;33.27;;;11.40;;
59042;SDS011;44826;51.596;5.624;2022-12-11T02:59:06;29.37;;;11.10;;
59042;SDS011;44826;51.596;5.624;2022-12-11T03:01:35;31.27;;;10.53;;
59042;SDS011;44826;51.596;5.624;2022-12-11T03:04:00;30.00;;;11.17;;
59042;SDS011;44826;51.596;5.624;2022-12-11T03:06:27;31.97;;;10.27;;
59042;SDS011;44826;51.596;5.624;2022-12-11T03:08:59;33.10;;;11.07;;
59042;SDS011;44826;51.596;5.624;2022-12-11T03:11:24;31.13;;;11.23;;
59042;SDS011;44826;51.596;5.624;2022-12-11T03:13:50;29.67;;;10.73;;
59042;SDS011;44826;51.596;5.624;2022-12-11T03:16:24;30.20;;;11.60;;
59042;SDS011;44826;51.596;5.624;2022-12-11T03:19:31;31.03;;;11.00;;
59042;SDS011;44826;51.596;5.624;2022-12-11T03:22:02;30.80;;;10.20;;
59042;SDS011;44826;51.596;5.624;2022-12-11T03:24:37;31.90;;;11.13;;
59042;SDS011;44826;51.596;5.624;2022-12-11T03:27:17;28.00;;;10.90;;
59042;SDS011;44826;51.596;5.624;2022-12-11T03:29:54;29.13;;;10.57;;
59042;SDS011;44826;51.596;5.624;2022-12-11T03:32:25;32.50;;;11.13;;
59042;SDS011;44826;51.596;5.624;2022-12-11T03:37:59;29.90;;;10.47;;
59042;SDS011;44826;51.596;5.624;2022-12-11T03:40:29;28.48;;;11.10;;
59042;SDS011;44826;51.596;5.624;2022-12-11T03:42:57;31.50;;;11.03;;
59042;SDS011;44826;51.596;5.624;2022-12-11T03:45:24;28.83;;;10.23;;
59042;SDS011;44826;51.596;5.624;2022-12-11T03:47:53;29.23;;;10.87;;
59042;SDS011;44826;51.596;5.624;2022-12-11T03:50:21;28.20;;;10.53;;
59042;SDS011;44826;51.596;5.624;2022-12-11T03:52:50;24.27;;;10.33;;
59042;SDS011;44826;51.596;5.624;2022-12-11T03:55:18;24.63;;;10.50;;
59042;SDS011;44826;51.596;5.624;2022-12-11T03:57:46;25.03;;;10.03;;
59042;SDS011;44826;51.596;5.624;2022-12-11T04:00:14;21.00;;;9.03;;
59042;SDS011;44826;51.596;5.624;2022-12-11T04:02:41;20.50;;;8.70;;
59042;SDS011;44826;51.596;5.624;2022-12-11T04:05:08;22.10;;;8.67;;
59042;SDS011;44826;51.596;5.624;2022-12-11T04:07:34;20.37;;;8.03;;
59042;SDS011;44826;51.596;5.624;2022-12-11T04:09:59;19.10;;;8.30;;
59042;SDS011;44826;51.596;5.624;2022-12-11T04:12:25;19.60;;;8.57;;
59042;SDS011;44826;51.596;5.624;2022-12-11T04:14:50;16.93;;;8.00;;
59042;SDS011;44826;51.596;5.624;2022-12-11T04:17:28;17.37;;;7.83;;
59042;SDS011;44826;51.596;5.624;2022-12-11T04:20:16;15.53;;;7.80;;
59042;SDS011;44826;51.596;5.624;2022-12-11T04:23:10;18.80;;;8.30;;
59042;SDS011;44826;51.596;5.624;2022-12-11T04:26:04;17.80;;;7.63;;
59042;SDS011;44826;51.596;5.624;2022-12-11T04:28:34;17.30;;;7.23;;
59042;SDS011;44826;51.596;5.624;2022-12-11T04:31:00;16.83;;;7.30;;
59042;SDS011;44826;51.596;5.624;2022-12-11T04:33:26;18.60;;;7.93;;
59042;SDS011;44826;51.596;5.624;2022-12-11T04:35:52;17.43;;;7.67;;
59042;SDS011;44826;51.596;5.624;2022-12-11T04:38:17;16.90;;;7.93;;
59042;SDS011;44826;51.596;5.624;2022-12-11T04:40:42;16.43;;;7.30;;
59042;SDS011;44826;51.596;5.624;2022-12-11T04:43:08;19.03;;;7.97;;
59042;SDS011;44826;51.596;5.624;2022-12-11T04:45:33;17.43;;;7.47;;
59042;SDS011;44826;51.596;5.624;2022-12-11T04:47:59;15.63;;;7.43;;
59042;SDS011;44826;51.596;5.624;2022-12-11T04:50:24;17.73;;;7.73;;
59042;SDS011;44826;51.596;5.624;2022-12-11T04:52:52;15.07;;;7.60;;
59042;SDS011;44826;51.596;5.624;2022-12-11T04:55:18;17.60;;;8.00;;
59042;SDS011;44826;51.596;5.624;2022-12-11T04:57:44;16.03;;;8.13;;
59042;SDS011;44826;51.596;5.624;2022-12-11T05:00:10;17.77;;;8.07;;
59042;SDS011;44826;51.596;5.624;2022-12-11T05:02:36;16.93;;;7.80;;
59042;SDS011;44826;51.596;5.624;2022-12-11T05:05:03;14.93;;;7.50;;
59042;SDS011;44826;51.596;5.624;2022-12-11T05:07:29;16.60;;;7.63;;
59042;SDS011;44826;51.596;5.624;2022-12-11T05:09:55;19.47;;;8.07;;
59042;SDS011;44826;51.596;5.624;2022-12-11T05:12:20;15.10;;;7.03;;
59042;SDS011;44826;51.596;5.624;2022-12-11T05:14:45;14.83;;;7.00;;
59042;SDS011;44826;51.596;5.624;2022-12-11T05:17:11;14.80;;;6.93;;
59042;SDS011;44826;51.596;5.624;2022-12-11T05:19:36;18.70;;;8.00;;
59042;SDS011;44826;51.596;5.624;2022-12-11T05:22:01;15.10;;;6.87;;
59042;SDS011;44826;51.596;5.624;2022-12-11T05:24:27;16.00;;;7.40;;
59042;SDS011;44826;51.596;5.624;2022-12-11T05:26:52;14.13;;;6.93;;
59042;SDS011;44826;51.596;5.624;2022-12-11T05:29:17;15.57;;;6.77;;
59042;SDS011;44826;51.596;5.624;2022-12-11T05:31:42;18.03;;;7.53;;
59042;SDS011;44826;51.596;5.624;2022-12-11T05:34:08;15.50;;;7.27;;
59042;SDS011;44826;51.596;5.624;2022-12-11T05:36:33;16.10;;;7.43;;
59042;SDS011;44826;51.596;5.624;2022-12-11T05:38:58;16.50;;;7.60;;
59042;SDS011;44826;51.596;5.624;2022-12-11T05:41:25;15.70;;;7.47;;
59042;SDS011;44826;51.596;5.624;2022-12-11T05:43:56;15.32;;;7.22;;
59042;SDS011;44826;51.596;5.624;2022-12-11T05:46:23;16.20;;;7.87;;
59042;SDS011;44826;51.596;5.624;2022-12-11T05:48:50;18.27;;;7.90;;
59042;SDS011;44826;51.596;5.624;2022-12-11T05:51:18;17.53;;;7.60;;
59042;SDS011;44826;51.596;5.624;2022-12-11T05:53:44;18.50;;;7.70;;
59042;SDS011;44826;51.596;5.624;2022-12-11T05:56:21;15.83;;;7.67;;
59042;SDS011;44826;51.596;5.624;2022-12-11T05:58:48;17.20;;;7.93;;
59042;SDS011;44826;51.596;5.624;2022-12-11T06:01:18;17.93;;;7.87;;
59042;SDS011;44826;51.596;5.624;2022-12-11T06:03:54;17.80;;;7.67;;
59042;SDS011;44826;51.596;5.624;2022-12-11T06:06:21;16.07;;;7.20;;
59042;SDS011;44826;51.596;5.624;2022-12-11T06:08:50;16.93;;;7.40;;
59042;SDS011;44826;51.596;5.624;2022-12-11T06:11:19;18.23;;;8.17;;
59042;SDS011;44826;51.596;5.624;2022-12-11T06:13:46;16.07;;;7.57;;
59042;SDS011;44826;51.596;5.624;2022-12-11T06:16:12;17.33;;;8.07;;
59042;SDS011;44826;51.596;5.624;2022-12-11T06:18:38;18.73;;;7.83;;
59042;SDS011;44826;51.596;5.624;2022-12-11T06:21:18;17.00;;;8.37;;
59042;SDS011;44826;51.596;5.624;2022-12-11T06:23:46;19.38;;;8.27;;
59042;SDS011;44826;51.596;5.624;2022-12-11T06:26:13;16.37;;;7.43;;
59042;SDS011;44826;51.596;5.624;2022-12-11T06:28:39;16.43;;;7.77;;
59042;SDS011;44826;51.596;5.624;2022-12-11T06:31:04;18.00;;;8.10;;
59042;SDS011;44826;51.596;5.624;2022-12-11T06:33:30;17.63;;;8.10;;
59042;SDS011;44826;51.596;5.624;2022-12-11T06:35:55;18.00;;;7.93;;
59042;SDS011;44826;51.596;5.624;2022-12-11T06:38:24;17.20;;;8.03;;
59042;SDS011;44826;51.596;5.624;2022-12-11T06:40:56;16.93;;;8.30;;
59042;SDS011;44826;51.596;5.624;2022-12-11T06:43:23;15.27;;;7.40;;
59042;SDS011;44826;51.596;5.624;2022-12-11T06:45:48;15.80;;;7.17;;
59042;SDS011;44826;51.596;5.624;2022-12-11T06:48:14;13.60;;;7.13;;
59042;SDS011;44826;51.596;5.624;2022-12-11T06:50:39;14.57;;;7.30;;
59042;SDS011;44826;51.596;5.624;2022-12-11T06:53:04;15.40;;;7.20;;
59042;SDS011;44826;51.596;5.624;2022-12-11T06:55:30;15.97;;;7.60;;
59042;SDS011;44826;51.596;5.624;2022-12-11T06:57:55;15.57;;;7.33;;
59042;SDS011;44826;51.596;5.624;2022-12-11T07:00:20;14.90;;;7.10;;
59042;SDS011;44826;51.596;5.624;2022-12-11T07:02:45;14.93;;;6.90;;
59042;SDS011;44826;51.596;5.624;2022-12-11T07:05:11;15.57;;;7.33;;
59042;SDS011;44826;51.596;5.624;2022-12-11T07:07:36;13.93;;;6.93;;
59042;SDS011;44826;51.596;5.624;2022-12-11T07:10:02;14.47;;;7.17;;
59042;SDS011;44826;51.596;5.624;2022-12-11T07:12:27;14.53;;;7.27;;
59042;SDS011;44826;51.596;5.624;2022-12-11T07:14:52;14.67;;;7.03;;
59042;SDS011;44826;51.596;5.624;2022-12-11T07:17:18;16.53;;;6.97;;
59042;SDS011;44826;51.596;5.624;2022-12-11T07:19:43;15.37;;;7.20;;
59042;SDS011;44826;51.596;5.624;2022-12-11T07:22:08;15.10;;;7.23;;
59042;SDS011;44826;51.596;5.624;2022-12-11T07:24:34;13.73;;;6.73;;
59042;SDS011;44826;51.596;5.624;2022-12-11T07:26:59;14.93;;;7.03;;
59042;SDS011;44826;51.596;5.624;2022-12-11T07:29:24;16.10;;;6.93;;
59042;SDS011;44826;51.596;5.624;2022-12-11T07:31:50;15.73;;;7.07;;
59042;SDS011;44826;51.596;5.624;2022-12-11T07:34:15;13.83;;;6.70;;
59042;SDS011;44826;51.596;5.624;2022-12-11T07:36:41;14.03;;;6.40;;
59042;SDS011;44826;51.596;5.624;2022-12-11T07:39:07;15.60;;;7.40;;
59042;SDS011;44826;51.596;5.624;2022-12-11T07:41:34;14.63;;;7.30;;
59042;SDS011;44826;51.596;5.624;2022-12-11T07:43:59;14.63;;;7.00;;
59042;SDS011;44826;51.596;5.624;2022-12-11T07:46:25;16.30;;;7.70;;
59042;SDS011;44826;51.596;5.624;2022-12-11T07:48:53;17.07;;;7.60;;
59042;SDS011;44826;51.596;5.624;2022-12-11T07:51:19;14.90;;;7.47;;
59042;SDS011;44826;51.596;5.624;2022-12-11T07:53:53;15.07;;;6.57;;
59042;SDS011;44826;51.596;5.624;2022-12-11T07:56:20;18.00;;;7.37;;
59042;SDS011;44826;51.596;5.624;2022-12-11T07:58:46;13.90;;;7.10;;
59042;SDS011;44826;51.596;5.624;2022-12-11T08:01:13;17.07;;;7.83;;
59042;SDS011;44826;51.596;5.624;2022-12-11T08:03:40;18.50;;;7.27;;
59042;SDS011;44826;51.596;5.624;2022-12-11T08:06:06;16.47;;;7.73;;
59042;SDS011;44826;51.596;5.624;2022-12-11T08:08:32;15.30;;;7.43;;
59042;SDS011;44826;51.596;5.624;2022-12-11T08:11:01;14.47;;;7.63;;
59042;SDS011;44826;51.596;5.624;2022-12-11T08:13:28;16.10;;;7.57;;
59042;SDS011;44826;51.596;5.624;2022-12-11T08:15:53;17.30;;;8.37;;
59042;SDS011;44826;51.596;5.624;2022-12-11T08:18:18;16.40;;;7.83;;
59042;SDS011;44826;51.596;5.624;2022-12-11T08:20:44;16.20;;;7.83;;
59042;SDS011;44826;51.596;5.624;2022-12-11T08:23:09;18.10;;;8.40;;
59042;SDS011;44826;51.596;5.624;2022-12-11T08:25:34;15.37;;;7.57;;
59042;SDS011;44826;51.596;5.624;2022-12-11T08:27:59;15.63;;;7.43;;
59042;SDS011;44826;51.596;5.624;2022-12-11T08:30:25;16.10;;;8.17;;
59042;SDS011;44826;51.596;5.624;2022-12-11T08:32:50;16.07;;;8.07;;
59042;SDS011;44826;51.596;5.624;2022-12-11T08:35:15;17.00;;;8.07;;
59042;SDS011;44826;51.596;5.624;2022-12-11T08:37:41;15.73;;;7.90;;
59042;SDS011;44826;51.596;5.624;2022-12-11T08:40:06;17.97;;;8.57;;
59042;SDS011;44826;51.596;5.624;2022-12-11T08:42:32;17.20;;;8.77;;
59042;SDS011;44826;51.596;5.624;2022-12-11T08:44:58;18.10;;;8.50;;
59042;SDS011;44826;51.596;5.624;2022-12-11T08:47:23;20.10;;;9.40;;
59042;SDS011;44826;51.596;5.624;2022-12-11T08:49:48;16.77;;;8.83;;
59042;SDS011;44826;51.596;5.624;2022-12-11T08:52:14;18.63;;;9.10;;
59042;SDS011;44826;51.596;5.624;2022-12-11T08:54:39;17.60;;;9.00;;
59042;SDS011;44826;51.596;5.624;2022-12-11T08:57:04;17.20;;;8.63;;
59042;SDS011;44826;51.596;5.624;2022-12-11T08:59:29;20.87;;;9.67;;
59042;SDS011;44826;51.596;5.624;2022-12-11T09:01:55;21.30;;;9.50;;
59042;SDS011;44826;51.596;5.624;2022-12-11T09:04:20;17.33;;;8.43;;
59042;SDS011;44826;51.596;5.624;2022-12-11T09:06:46;18.07;;;7.93;;
59042;SDS011;44826;51.596;5.624;2022-12-11T09:09:12;18.33;;;8.00;;
59042;SDS011;44826;51.596;5.624;2022-12-11T09:11:38;17.53;;;8.47;;
59042;SDS011;44826;51.596;5.624;2022-12-11T09:14:04;18.40;;;8.70;;
59042;SDS011;44826;51.596;5.624;2022-12-11T09:16:29;18.93;;;8.80;;
59042;SDS011;44826;51.596;5.624;2022-12-11T09:18:56;18.67;;;8.60;;
59042;SDS011;44826;51.596;5.624;2022-12-11T09:21:23;17.57;;;8.20;;
59042;SDS011;44826;51.596;5.624;2022-12-11T09:23:52;17.87;;;8.47;;
59042;SDS011;44826;51.596;5.624;2022-12-11T09:26:19;17.37;;;7.93;;
59042;SDS011;44826;51.596;5.624;2022-12-11T09:28:44;19.83;;;8.53;;
59042;SDS011;44826;51.596;5.624;2022-12-11T09:31:15;16.37;;;7.57;;
59042;SDS011;44826;51.596;5.624;2022-12-11T09:33:43;17.07;;;7.73;;
59042;SDS011;44826;51.596;5.624;2022-12-11T09:36:09;17.90;;;8.10;;
59042;SDS011;44826;51.596;5.624;2022-12-11T09:38:35;17.83;;;7.63;;
59042;SDS011;44826;51.596;5.624;2022-12-11T09:41:01;16.80;;;7.50;;
59042;SDS011;44826;51.596;5.624;2022-12-11T09:44:01;18.07;;;8.23;;
59042;SDS011;44826;51.596;5.624;2022-12-11T09:46:39;19.47;;;7.67;;
59042;SDS011;44826;51.596;5.624;2022-12-11T09:49:10;15.50;;;7.77;;
59042;SDS011;44826;51.596;5.624;2022-12-11T09:54:33;16.70;;;7.90;;
59042;SDS011;44826;51.596;5.624;2022-12-11T09:57:05;16.23;;;7.63;;
59042;SDS011;44826;51.596;5.624;2022-12-11T09:59:41;15.77;;;7.83;;
59042;SDS011;44826;51.596;5.624;2022-12-11T10:02:24;18.27;;;7.90;;
59042;SDS011;44826;51.596;5.624;2022-12-11T10:05:12;17.47;;;8.00;;
59042;SDS011;44826;51.596;5.624;2022-12-11T10:10:35;15.80;;;7.30;;
59042;SDS011;44826;51.596;5.624;2022-12-11T10:13:16;17.17;;;7.90;;
59042;SDS011;44826;51.596;5.624;2022-12-11T10:15:56;16.20;;;7.37;;
59042;SDS011;44826;51.596;5.624;2022-12-11T10:18:28;16.27;;;7.10;;
59042;SDS011;44826;51.596;5.624;2022-12-11T10:20:55;17.27;;;8.23;;
59042;SDS011;44826;51.596;5.624;2022-12-11T10:23:24;17.37;;;7.23;;
59042;SDS011;44826;51.596;5.624;2022-12-11T10:26:09;16.93;;;8.00;;
59042;SDS011;44826;51.596;5.624;2022-12-11T10:28:40;15.05;;;7.35;;
59042;SDS011;44826;51.596;5.624;2022-12-11T10:31:19;17.33;;;8.00;;
59042;SDS011;44826;51.596;5.624;2022-12-11T10:33:59;17.77;;;8.03;;
59042;SDS011;44826;51.596;5.624;2022-12-11T10:36:28;17.47;;;7.67;;
59042;SDS011;44826;51.596;5.624;2022-12-11T10:39:09;16.77;;;7.43;;
59042;SDS011;44826;51.596;5.624;2022-12-11T10:41:39;17.00;;;7.83;;
59042;SDS011;44826;51.596;5.624;2022-12-11T10:44:13;17.57;;;8.03;;
59042;SDS011;44826;51.596;5.624;2022-12-11T10:46:39;17.25;;;7.65;;
59042;SDS011;44826;51.596;5.624;2022-12-11T10:49:04;16.67;;;7.57;;
59042;SDS011;44826;51.596;5.624;2022-12-11T10:53:56;17.97;;;7.63;;
59042;SDS011;44826;51.596;5.624;2022-12-11T10:56:27;16.83;;;7.40;;
59042;SDS011;44826;51.596;5.624;2022-12-11T10:58:55;16.97;;;7.63;;
59042;SDS011;44826;51.596;5.624;2022-12-11T11:01:22;16.50;;;7.23;;
59042;SDS011;44826;51.596;5.624;2022-12-11T11:04:06;17.50;;;7.83;;
59042;SDS011;44826;51.596;5.624;2022-12-11T11:06:39;18.03;;;7.47;;
59042;SDS011;44826;51.596;5.624;2022-12-11T11:09:25;17.67;;;8.03;;
59042;SDS011;44826;51.596;5.624;2022-12-11T11:11:59;16.83;;;8.23;;
59042;SDS011;44826;51.596;5.624;2022-12-11T11:14:25;17.13;;;7.57;;
59042;SDS011;44826;51.596;5.624;2022-12-11T11:16:51;17.83;;;8.27;;
59042;SDS011;44826;51.596;5.624;2022-12-11T11:22:02;16.93;;;7.77;;
59042;SDS011;44826;51.596;5.624;2022-12-11T11:24:34;16.90;;;7.43;;
59042;SDS011;44826;51.596;5.624;2022-12-11T11:27:09;15.40;;;7.20;;
59042;SDS011;44826;51.596;5.624;2022-12-11T11:29:55;14.70;;;7.13;;
59042;SDS011;44826;51.596;5.624;2022-12-11T11:32:28;15.57;;;7.20;;
59042;SDS011;44826;51.596;5.624;2022-12-11T11:37:34;14.37;;;7.13;;
59042;SDS011;44826;51.596;5.624;2022-12-11T11:40:05;17.30;;;7.67;;
59042;SDS011;44826;51.596;5.624;2022-12-11T11:42:42;15.37;;;7.40;;
59042;SDS011;44826;51.596;5.624;2022-12-11T11:48:42;15.07;;;7.00;;
59042;SDS011;44826;51.596;5.624;2022-12-11T11:57:13;14.53;;;6.50;;
59042;SDS011;44826;51.596;5.624;2022-12-11T11:59:45;15.23;;;6.93;;
59042;SDS011;44826;51.596;5.624;2022-12-11T12:04:42;14.90;;;6.63;;
59042;SDS011;44826;51.596;5.624;2022-12-11T12:07:20;14.17;;;6.33;;
59042;SDS011;44826;51.596;5.624;2022-12-11T12:15:28;12.57;;;6.27;;
59042;SDS011;44826;51.596;5.624;2022-12-11T12:20:42;15.13;;;6.97;;
59042;SDS011;44826;51.596;5.624;2022-12-11T12:40:14;13.07;;;6.40;;
59042;SDS011;44826;51.596;5.624;2022-12-11T12:47:38;17.40;;;6.97;;
59042;SDS011;44826;51.596;5.624;2022-12-11T12:50:10;17.17;;;7.40;;
59042;SDS011;44826;51.596;5.624;2022-12-11T12:52:38;16.93;;;7.17;;
59042;SDS011;44826;51.596;5.624;2022-12-11T12:57:43;14.43;;;7.30;;
59042;SDS011;44826;51.596;5.624;2022-12-11T13:00:11;14.83;;;7.07;;
59042;SDS011;44826;51.596;5.624;2022-12-11T13:02:38;15.17;;;7.57;;
59042;SDS011;44826;51.596;5.624;2022-12-11T13:05:23;15.17;;;7.50;;
59042;SDS011;44826;51.596;5.624;2022-12-11T13:07:52;16.83;;;7.27;;
59042;SDS011;44826;51.596;5.624;2022-12-11T13:10:25;14.23;;;6.53;;
59042;SDS011;44826;51.596;5.624;2022-12-11T13:12:56;15.87;;;7.47;;
59042;SDS011;44826;51.596;5.624;2022-12-11T13:17:54;14.20;;;7.07;;
59042;SDS011;44826;51.596;5.624;2022-12-11T13:20:27;16.17;;;7.20;;
59042;SDS011;44826;51.596;5.624;2022-12-11T13:25:30;16.20;;;7.37;;
59042;SDS011;44826;51.596;5.624;2022-12-11T13:28:07;15.47;;;7.33;;
59042;SDS011;44826;51.596;5.624;2022-12-11T13:30:55;14.57;;;6.93;;
59042;SDS011;44826;51.596;5.624;2022-12-11T13:33:22;14.83;;;6.70;;
59042;SDS011;44826;51.596;5.624;2022-12-11T13:36:11;13.73;;;7.07;;
59042;SDS011;44826;51.596;5.624;2022-12-11T13:38:33;13.67;;;6.80;;
59042;SDS011;44826;51.596;5.624;2022-12-11T13:41:00;13.93;;;6.80;;
59042;SDS011;44826;51.596;5.624;2022-12-11T13:43:29;14.70;;;7.23;;
59042;SDS011;44826;51.596;5.624;2022-12-11T13:46:00;13.07;;;6.87;;
59042;SDS011;44826;51.596;5.624;2022-12-11T13:50:57;17.53;;;8.20;;
59042;SDS011;44826;51.596;5.624;2022-12-11T13:53:23;17.23;;;8.20;;
59042;SDS011;44826;51.596;5.624;2022-12-11T13:55:58;15.30;;;7.23;;
59042;SDS011;44826;51.596;5.624;2022-12-11T13:58:28;17.17;;;7.23;;
59042;SDS011;44826;51.596;5.624;2022-12-11T14:01:14;16.77;;;8.97;;
59042;SDS011;44826;51.596;5.624;2022-12-11T14:03:52;13.77;;;7.40;;
59042;SDS011;44826;51.596;5.624;2022-12-11T14:06:19;16.23;;;7.63;;
59042;SDS011;44826;51.596;5.624;2022-12-11T14:08:44;15.80;;;8.13;;
59042;SDS011;44826;51.596;5.624;2022-12-11T14:11:19;20.47;;;10.67;;
59042;SDS011;44826;51.596;5.624;2022-12-11T14:13:47;18.70;;;9.43;;
59042;SDS011;44826;51.596;5.624;2022-12-11T14:16:18;17.63;;;9.07;;
59042;SDS011;44826;51.596;5.624;2022-12-11T14:18:46;15.27;;;8.53;;
59042;SDS011;44826;51.596;5.624;2022-12-11T14:21:17;15.77;;;8.07;;
59042;SDS011;44826;51.596;5.624;2022-12-11T14:23:50;17.08;;;8.43;;
59042;SDS011;44826;51.596;5.624;2022-12-11T14:26:24;16.07;;;8.03;;
59042;SDS011;44826;51.596;5.624;2022-12-11T14:28:56;16.10;;;8.90;;
59042;SDS011;44826;51.596;5.624;2022-12-11T14:31:35;14.50;;;7.50;;
59042;SDS011;44826;51.596;5.624;2022-12-11T14:36:38;15.17;;;7.17;;
59042;SDS011;44826;51.596;5.624;2022-12-11T14:39:06;13.67;;;7.43;;
59042;SDS011;44826;51.596;5.624;2022-12-11T14:44:11;14.87;;;7.90;;
59042;SDS011;44826;51.596;5.624;2022-12-11T14:46:43;16.47;;;7.60;;
59042;SDS011;44826;51.596;5.624;2022-12-11T14:52:14;16.17;;;7.63;;
59042;SDS011;44826;51.596;5.624;2022-12-11T14:54:49;18.60;;;8.77;;
59042;SDS011;44826;51.596;5.624;2022-12-11T14:57:20;20.13;;;9.80;;
59042;SDS011;44826;51.596;5.624;2022-12-11T14:59:51;17.57;;;8.33;;
59042;SDS011;44826;51.596;5.624;2022-12-11T15:04:43;15.40;;;8.13;;
59042;SDS011;44826;51.596;5.624;2022-12-11T15:07:18;16.10;;;8.27;;
59042;SDS011;44826;51.596;5.624;2022-12-11T15:09:45;19.30;;;8.27;;
59042;SDS011;44826;51.596;5.624;2022-12-11T15:12:11;18.43;;;8.70;;
59042;SDS011;44826;51.596;5.624;2022-12-11T15:14:50;15.77;;;7.70;;
59042;SDS011;44826;51.596;5.624;2022-12-11T15:17:18;14.33;;;7.43;;
59042;SDS011;44826;51.596;5.624;2022-12-11T15:19:47;13.30;;;7.17;;
59042;SDS011;44826;51.596;5.624;2022-12-11T15:22:15;13.95;;;7.47;;
59042;SDS011;44826;51.596;5.624;2022-12-11T15:24:43;12.20;;;6.57;;
59042;SDS011;44826;51.596;5.624;2022-12-11T15:27:34;12.43;;;6.57;;
59042;SDS011;44826;51.596;5.624;2022-12-11T15:30:00;14.33;;;7.40;;
59042;SDS011;44826;51.596;5.624;2022-12-11T15:32:59;11.70;;;6.37;;
59042;SDS011;44826;51.596;5.624;2022-12-11T15:35:34;12.87;;;6.30;;
59042;SDS011;44826;51.596;5.624;2022-12-11T15:38:00;13.03;;;6.63;;
59042;SDS011;44826;51.596;5.624;2022-12-11T15:40:25;12.70;;;7.00;;
59042;SDS011;44826;51.596;5.624;2022-12-11T15:42:51;12.00;;;6.07;;
59042;SDS011;44826;51.596;5.624;2022-12-11T15:45:25;12.17;;;6.33;;
59042;SDS011;44826;51.596;5.624;2022-12-11T15:47:54;13.57;;;7.30;;
59042;SDS011;44826;51.596;5.624;2022-12-11T15:50:23;14.60;;;6.80;;
59042;SDS011;44826;51.596;5.624;2022-12-11T15:52:50;11.87;;;6.13;;
59042;SDS011;44826;51.596;5.624;2022-12-11T15:55:17;11.70;;;6.47;;
59042;SDS011;44826;51.596;5.624;2022-12-11T15:58:00;13.13;;;6.33;;
59042;SDS011;44826;51.596;5.624;2022-12-11T16:00:27;12.80;;;6.40;;
59042;SDS011;44826;51.596;5.624;2022-12-11T16:02:53;12.37;;;6.50;;
59042;SDS011;44826;51.596;5.624;2022-12-11T16:05:19;10.57;;;5.90;;
59042;SDS011;44826;51.596;5.624;2022-12-11T16:07:46;11.00;;;6.20;;